Date,TemperatureHighF,TemperatureAvgF,TemperatureLowF,DewpointHighF,DewpointAvgF,DewpointLowF,HumidityHigh,HumidityAvg,HumidityLow,PressureMaxIn,PressureMinIn,WindSpeedMaxMPH,WindSpeedAvgMPH,GustSpeedMaxMPH,PrecipitationSumIn
2012-1-1,25,17,8,-100,-100,-100,0,0,100,0.00,40.00,0,-999,0,0.01
2012-1-2,36,31,26,-100,-100,-100,0,0,100,0.00,40.00,0,-999,0,0.01
2012-1-3,34,28,24,-100,-100,-100,0,0,100,0.00,40.00,0,-999,0,0.01
2012-1-4,35,31,24,-100,-100,-100,0,0,100,0.00,40.00,0,-999,0,0.01
2012-1-5,35,31,25,-100,-100,-100,0,0,100,0.00,40.00,0,-999,0,0.01
2012-1-6,24,20,17,-100,-100,-100,0,0,100,0.00,40.00,0,-999,0,0.00
2012-1-7,20,16,10,-100,-100,-100,0,0,100,0.00,40.00,0,-999,0,0.00
2012-1-8,22,16,11,-100,-100,-100,0,0,100,0.00,40.00,0,-999,0,0.01
2012-1-9,35,26,21,-100,-100,-100,0,0,100,0.00,40.00,0,-999,0,0.01
2012-1-10,28,23,15,-100,-100,-100,0,0,100,0.00,40.00,0,-999,0,0.01
2012-1-11,14,4,-4,-100,-100,-100,0,0,100,0.00,40.00,0,-999,0,0.01
2012-1-12,16,11,6,-100,-100,-100,0,0,100,0.00,40.00,0,-999,0,0.01
2012-1-13,22,17,11,-100,-100,-100,0,0,100,0.00,40.00,0,-999,0,0.01
2012-1-14,30,26,19,-100,-100,-100,0,0,100,0.00,40.00,0,-999,0,0.01
2012-1-15,28,23,14,-100,-100,-100,0,0,100,0.00,40.00,0,-999,0,0.01
2012-1-16,13,4,-2,-100,-100,-100,0,0,100,0.00,40.00,0,-999,0,0.00
2012-1-17,4,0,-4,-100,-100,-100,0,0,100,0.00,40.00,0,-999,0,0.00
2012-1-18,23,14,4,-100,-100,-100,0,0,100,0.00,40.00,0,-999,0,0.02
2012-1-19,26,25,23,-100,-100,-100,0,0,100,0.00,40.00,0,-999,0,0.04
2012-1-20,26,25,23,-100,-100,-100,0,0,100,0.00,40.00,0,-999,0,0.04
2012-1-21,28,27,20,-100,-100,-100,0,0,100,0.00,40.00,0,-999,0,0.05
2012-1-22,19,14,9,-100,-100,-100,0,0,100,0.00,40.00,0,-999,0,0.03
2012-1-23,26,19,14,-100,-100,-100,0,0,100,0.00,40.00,0,-999,0,0.03
2012-1-24,26,12,3,-100,-100,-100,0,0,100,0.00,40.00,0,-999,0,0.01
2012-1-25,27,22,15,-100,-100,-100,0,0,100,0.00,40.00,0,-999,0,0.02
2012-1-26,26,23,20,-100,-100,-100,0,0,100,0.00,40.00,0,-999,0,0.02
2012-1-27,21,8,2,-100,-100,-100,0,0,100,0.00,40.00,0,-999,0,0.01
2012-1-28,17,10,3,-100,-100,-100,0,0,100,0.00,40.00,0,-999,0,0.01
2012-1-29,27,21,15,-100,-100,-100,0,0,100,0.00,40.00,0,-999,0,0.01
2012-1-30,23,20,17,-100,-100,-100,0,0,100,0.00,40.00,0,-999,0,0.00
2012-1-31,30,18,15,-100,-100,-100,0,0,100,0.00,40.00,0,-999,0,0.00
2012-2-1,25,20,16,-100,-100,-100,0,0,100,0.00,40.00,0,-999,0,0.00
2012-2-2,31,21,17,-100,-100,-100,0,0,100,0.00,40.00,0,-999,0,0.01
2012-2-3,31,18,15,-100,-100,-100,0,0,100,0.00,40.00,0,-999,0,0.00
2012-2-4,33,18,13,-100,-100,-100,0,0,100,0.00,40.00,0,-999,0,0.02
2012-2-5,25,17,13,-100,-100,-100,0,0,100,0.00,40.00,0,-999,0,0.00
2012-2-6,24,14,11,-100,-100,-100,0,0,100,0.00,40.00,0,-999,0,0.00
2012-2-7,26,15,11,-100,-100,-100,0,0,100,0.00,40.00,0,-999,0,0.00
2012-2-8,23,18,14,-100,-100,-100,0,0,100,0.00,40.00,0,-999,0,0.01
2012-2-9,25,19,15,-100,-100,-100,0,0,100,0.00,40.00,0,-999,0,0.01
2012-2-10,27,23,17,-100,-100,-100,0,0,100,0.00,40.00,0,-999,0,0.02
2012-2-11,32,27,23,-100,-100,-100,0,0,100,0.00,40.00,0,-999,0,0.01
2012-2-12,31,25,21,-100,-100,-100,0,0,100,0.00,40.00,0,-999,0,0.01
2012-2-13,26,21,15,-100,-100,-100,0,0,100,0.00,40.00,0,-999,0,0.01
2012-2-14,18,17,13,-100,-100,-100,0,0,100,0.00,40.00,0,-999,0,0.02
2012-2-15,26,15,6,-100,-100,-100,0,0,100,0.00,40.00,0,-999,0,0.01
2012-2-16,23,12,5,-100,-100,-100,0,0,100,0.00,40.00,0,-999,0,0.00
2012-2-17,24,17,12,-100,-100,-100,0,0,100,0.00,40.00,0,-999,0,0.01
2012-2-18,25,19,14,-100,-100,-100,0,0,100,0.00,40.00,0,-999,0,0.03
2012-2-19,18,12,8,-100,-100,-100,0,0,100,0.00,40.00,0,-999,0,0.01
2012-2-20,13,11,5,-100,-100,-100,0,0,100,0.00,40.00,0,-999,0,0.00
2012-2-21,27,20,14,-100,-100,-100,0,0,100,0.00,40.00,0,-999,0,0.07
2012-2-22,27,25,11,-100,-100,-100,0,0,100,0.00,40.00,0,-999,0,0.04
2012-2-23,16,11,7,-100,-100,-100,0,0,100,0.00,40.00,0,-999,0,0.00
2012-2-24,23,14,6,-100,-100,-100,0,0,100,0.00,40.00,0,-999,0,0.00
2012-2-25,23,16,7,-100,-100,-100,0,0,100,0.00,40.00,0,-999,0,0.01
2012-2-26,15,8,3,-100,-100,-100,0,0,100,0.00,40.00,0,-999,0,0.02
2012-2-27,27,17,7,-100,-100,-100,0,0,100,0.00,40.00,0,-999,0,0.01
2012-2-28,21,17,11,-100,-100,-100,0,0,100,0.00,40.00,0,-999,0,0.01
2012-2-29,21,14,8,-100,-100,-100,0,0,100,0.00,40.00,0,-999,0,0.01
2012-3-1,16,10,7,-100,-100,-100,0,0,100,0.00,40.00,0,-999,0,0.01
2012-3-2,15,9,5,-100,-100,-100,0,0,100,0.00,40.00,0,-999,0,0.01
2012-3-3,24,18,9,-100,-100,-100,0,0,100,0.00,40.00,0,-999,0,0.02
2012-3-4,34,25,20,-100,-100,-100,0,0,100,0.00,40.00,0,-999,0,0.01
2012-3-5,34,28,21,-100,-100,-100,0,0,100,0.00,40.00,0,-999,0,0.01
2012-3-6,29,22,14,-100,-100,-100,0,0,100,0.00,40.00,0,-999,0,0.02
2012-3-7,26,15,9,-100,-100,-100,0,0,100,0.00,40.00,0,-999,0,0.01
2012-3-8,41,23,11,-100,-100,-100,0,0,100,0.00,40.00,0,-999,0,0.00
2012-3-9,46,34,24,-100,-100,-100,0,0,100,0.00,40.00,0,-999,0,0.01
2012-3-10,44,34,28,-100,-100,-100,0,0,100,0.00,40.00,0,-999,0,0.00
2012-3-11,36,32,27,-100,-100,-100,0,0,100,0.00,40.00,0,-999,0,0.00
2012-3-12,35,29,23,-100,-100,-100,0,0,100,0.00,40.00,0,-999,0,0.01
2012-3-13,35,33,29,-100,-100,-100,0,0,100,0.00,40.00,0,-999,0,0.00
2012-3-14,30,30,29,-100,-100,-100,0,0,100,0.00,40.00,0,-999,0,0.02
2012-3-15,37,33,30,-100,-100,-100,0,0,100,0.00,40.00,0,-999,0,0.01
2012-3-16,36,33,31,-100,-100,-100,0,0,100,0.00,40.00,0,-999,0,0.01
2012-3-17,40,35,31,-100,-100,-100,0,0,100,0.00,40.00,0,-999,0,0.01
2012-3-18,33,28,21,-100,-100,-100,0,0,100,0.00,40.00,0,-999,0,0.02
2012-3-19,21,16,7,-100,-100,-100,0,0,100,0.00,40.00,0,-999,0,0.04
2012-3-20,22,16,2,-100,-100,-100,0,0,100,0.00,40.00,0,-999,0,0.01
2012-3-21,33,28,22,-100,-100,-100,0,0,100,0.00,40.00,0,-999,0,0.01
2012-3-22,44,36,24,-100,-100,-100,0,0,100,0.00,40.00,0,-999,0,0.00
2012-3-23,45,41,31,-100,-100,-100,0,0,100,0.00,40.00,0,-999,0,0.01
2012-3-24,49,40,30,-100,-100,-100,0,0,100,0.00,40.00,0,-999,0,0.01
2012-3-25,47,44,40,-100,-100,-100,0,0,100,0.00,40.00,0,-999,0,0.00
2012-3-26,42,33,22,-100,-100,-100,0,0,100,0.00,40.00,0,-999,0,0.00
2012-3-27,34,26,18,-100,-100,-100,0,0,100,0.00,40.00,0,-999,0,0.00
2012-3-28,36,32,25,-100,-100,-100,0,0,100,0.00,40.00,0,-999,0,0.02
2012-3-29,29,25,17,-100,-100,-100,0,0,100,0.00,40.00,0,-999,0,0.01
2012-3-30,36,32,28,-100,-100,-100,0,0,100,0.00,40.00,0,-999,0,0.01
2012-3-31,49,42,35,-100,-100,-100,0,0,100,0.00,40.00,0,-999,0,0.02
2012-4-1,45,26,19,-100,-100,-100,0,0,100,0.00,40.00,0,-999,0,0.01
2012-4-2,34,23,14,-100,-100,-100,0,0,100,0.00,40.00,0,-999,0,0.00
2012-4-3,43,32,22,-100,-100,-100,0,0,100,0.00,40.00,0,-999,0,0.00
2012-4-4,42,36,25,-100,-100,-100,0,0,100,0.00,40.00,0,-999,0,0.00
2012-4-5,40,28,18,-100,-100,-100,0,0,100,0.00,40.00,0,-999,0,0.00
2012-4-6,29,19,13,-100,-100,-100,0,0,100,0.00,40.00,0,-999,0,0.01
2012-4-7,30,20,9,-100,-100,-100,0,0,100,0.00,40.00,0,-999,0,0.01
2012-4-8,47,36,27,-100,-100,-100,0,0,100,0.00,40.00,0,-999,0,0.01
2012-4-9,51,41,33,-100,-100,-100,0,0,100,0.00,40.00,0,-999,0,0.00
2012-4-10,56,46,37,-100,-100,-100,0,0,100,0.00,40.00,0,-999,0,0.00
2012-4-11,54,45,33,-100,-100,-100,0,0,100,0.00,40.00,0,-999,0,0.00
2012-4-12,32,27,23,-100,-100,-100,0,0,100,0.00,40.00,0,-999,0,0.02
2012-4-13,35,27,23,-100,-100,-100,0,0,100,0.00,40.00,0,-999,0,0.01
2012-4-14,42,30,21,-100,-100,-100,0,0,100,0.00,40.00,0,-999,0,0.00
2012-4-15,33,27,21,-100,-100,-100,0,0,100,0.00,40.00,0,-999,0,0.00
2012-4-16,36,27,19,-100,-100,-100,0,0,100,0.00,40.00,0,-999,0,0.01
2012-4-17,38,32,29,-100,-100,-100,0,0,100,0.00,40.00,0,-999,0,0.01
2012-4-18,35,30,28,-100,-100,-100,0,0,100,0.00,40.00,0,-999,0,0.02
2012-4-19,37,30,26,-100,-100,-100,0,0,100,0.00,40.00,0,-999,0,0.01
2012-4-20,46,38,30,-100,-100,-100,0,0,100,0.00,40.00,0,-999,0,0.01
2012-4-21,53,44,35,-100,-100,-100,0,0,100,0.00,40.00,0,-999,0,0.00
2012-4-22,62,50,41,-100,-100,-100,0,0,100,0.00,40.00,0,-999,0,0.00
2012-4-23,59,51,45,-100,-100,-100,0,0,100,0.00,40.00,0,-999,0,0.00
2012-4-24,54,48,41,-100,-100,-100,0,0,100,0.00,40.00,0,-999,0,0.00
2012-4-25,52,45,38,-100,-100,-100,0,0,100,0.00,40.00,0,-999,0,0.00
2012-4-26,48,43,29,-100,-100,-100,0,0,100,0.00,40.00,0,-999,0,0.01
2012-4-27,29,22,19,-100,-100,-100,0,0,100,0.00,40.00,0,-999,0,0.03
2012-4-28,28,22,17,-100,-100,-100,0,0,100,0.00,40.00,0,-999,0,0.01
2012-4-29,38,28,20,-100,-100,-100,0,0,100,0.00,40.00,0,-999,0,0.01
2012-4-30,39,34,30,-100,-100,-100,0,0,100,0.00,40.00,0,-999,0,0.01
2012-5-1,36,33,30,-100,-100,-100,0,0,100,0.00,40.00,0,-999,0,0.01
2012-5-2,37,32,28,-100,-100,-100,0,0,100,0.00,40.00,0,-999,0,0.01
2012-5-3,44,37,32,-100,-100,-100,0,0,100,0.00,40.00,0,-999,0,0.01
2012-5-4,42,37,32,-100,-100,-100,0,0,100,0.00,40.00,0,-999,0,0.00
2012-5-5,33,26,24,-100,-100,-100,0,0,100,0.00,40.00,0,-999,0,0.02
2012-5-6,41,28,16,-100,-100,-100,0,0,100,0.00,40.00,0,-999,0,0.01
2012-5-7,48,36,23,-100,-100,-100,0,0,100,0.00,40.00,0,-999,0,0.00
2012-5-8,52,41,33,-100,-100,-100,0,0,100,0.00,40.00,0,-999,0,0.00
2012-5-9,56,47,40,-100,-100,-100,0,0,100,0.00,40.00,0,-999,0,0.00
2012-5-10,47,40,32,-100,-100,-100,0,0,100,0.00,40.00,0,-999,0,0.00
2012-5-11,45,36,27,-100,-100,-100,0,0,100,0.00,40.00,0,-999,0,0.00
2012-5-12,50,37,29,-100,-100,-100,0,0,100,0.00,40.00,0,-999,0,0.00
2012-5-13,57,45,34,-100,-100,-100,0,0,100,0.00,40.00,0,-999,0,0.00
2012-5-14,63,52,39,-100,-100,-100,0,0,100,0.00,40.00,0,-999,0,0.00
2012-5-15,62,53,45,-100,-100,-100,0,0,100,0.00,40.00,0,-999,0,0.00
2012-5-16,59,50,44,-100,-100,-100,0,0,100,0.00,40.00,0,-999,0,0.00
2012-5-17,53,47,42,-100,-100,-100,0,0,100,0.00,40.00,0,-999,0,0.01
2012-5-18,44,36,31,-100,-100,-100,0,0,100,0.00,40.00,0,-999,0,0.02
2012-5-19,45,36,27,-100,-100,-100,0,0,100,0.00,40.00,0,-999,0,0.01
2012-5-20,49,43,37,-100,-100,-100,0,0,100,0.00,40.00,0,-999,0,0.00
2012-5-21,59,52,43,-100,-100,-100,0,0,100,0.00,40.00,0,-999,0,0.01
2012-5-22,52,43,37,-100,-100,-100,0,0,100,0.00,40.00,0,-999,0,0.00
2012-5-23,35,30,26,-100,-100,-100,0,0,100,0.00,40.00,0,-999,0,0.03
2012-5-24,38,30,25,-100,-100,-100,0,0,100,0.00,40.00,0,-999,0,0.02
2012-5-25,43,33,29,-100,-100,-100,0,0,100,0.00,40.00,0,-999,0,0.02
2012-5-26,47,36,27,-100,-100,-100,0,0,100,0.00,40.00,0,-999,0,0.02
2012-5-27,28,27,26,-100,-100,-100,0,0,100,0.00,40.00,0,-999,0,0.04
2012-5-28,42,32,27,-100,-100,-100,0,0,100,0.00,40.00,0,-999,0,0.03
2012-5-29,50,43,34,-100,-100,-100,0,0,100,0.00,40.00,0,-999,0,0.01
2012-5-30,49,43,37,-100,-100,-100,0,0,100,0.00,40.00,0,-999,0,0.01
2012-5-31,52,45,37,-100,-100,-100,0,0,100,0.00,40.00,0,-999,0,0.00
2012-6-1,58,50,43,-100,-100,-100,0,0,100,0.00,40.00,0,-999,0,0.00
2012-6-2,59,52,45,-100,-100,-100,0,0,100,0.00,40.00,0,-999,0,0.01
2012-6-3,59,53,47,-100,-100,-100,0,0,100,0.00,40.00,0,-999,0,0.00
2012-6-4,67,58,51,-100,-100,-100,0,0,100,0.00,40.00,0,-999,0,0.00
2012-6-5,59,45,28,-100,-100,-100,0,0,100,0.00,40.00,0,-999,0,0.00
2012-6-6,42,31,24,-100,-100,-100,0,0,100,0.00,40.00,0,-999,0,0.00
2012-6-7,53,40,28,-100,-100,-100,0,0,100,0.00,40.00,0,-999,0,0.01
2012-6-8,54,47,39,-100,-100,-100,0,0,100,0.00,40.00,0,-999,0,0.01
2012-6-9,38,32,25,-100,-100,-100,0,0,100,0.00,40.00,0,-999,0,0.02
2012-6-10,34,29,25,-100,-100,-100,0,0,100,0.00,40.00,0,-999,0,0.01
2012-6-11,51,40,30,-100,-100,-100,0,0,100,0.00,40.00,0,-999,0,0.01
2012-6-12,52,46,39,-100,-100,-100,0,0,100,0.00,40.00,0,-999,0,0.00
2012-6-13,53,50,44,-100,-100,-100,0,0,100,0.00,40.00,0,-999,0,0.01
2012-6-14,54,46,35,-100,-100,-100,0,0,100,0.00,40.00,0,-999,0,0.00
2012-6-15,54,48,42,-100,-100,-100,0,0,100,0.00,40.00,0,-999,0,0.00
2012-6-16,59,49,42,-100,-100,-100,0,0,100,0.00,40.00,0,-999,0,0.00
2012-6-17,54,48,47,-100,-100,-100,0,0,100,0.00,40.00,0,-999,0,0.00
2012-6-18,53,47,44,-100,-100,-100,0,0,100,0.00,40.00,0,-999,0,0.00
2012-6-19,43,38,30,-100,-100,-100,0,0,100,0.00,40.00,0,-999,0,0.00
2012-6-20,53,43,30,-100,-100,-100,0,0,100,0.00,40.00,0,-999,0,0.00
2012-6-21,65,52,40,-100,-100,-100,0,0,100,0.00,40.00,0,-999,0,0.00
2012-6-22,65,60,53,-100,-100,-100,0,0,100,0.00,40.00,0,-999,0,0.00
2012-6-23,69,61,53,-100,-100,-100,0,0,100,0.00,40.00,0,-999,0,0.00
2012-6-24,72,64,57,-100,-100,-100,0,0,100,0.00,40.00,0,-999,0,0.00
2012-6-25,68,63,59,-100,-100,-100,0,0,100,0.00,40.00,0,-999,0,0.00
2012-6-26,61,54,43,-100,-100,-100,0,0,100,0.00,40.00,0,-999,0,0.00
2012-6-27,58,49,39,-100,-100,-100,0,0,100,0.00,40.00,0,-999,0,0.00
2012-6-28,66,58,50,-100,-100,-100,0,0,100,0.00,40.00,0,-999,0,0.01
2012-6-29,66,59,52,-100,-100,-100,0,0,100,0.00,40.00,0,-999,0,0.00
2012-6-30,69,62,53,-100,-100,-100,0,0,100,0.00,40.00,0,-999,0,0.00
2012-7-1,68,62,55,-100,-100,-100,0,0,100,0.00,40.00,0,-999,0,0.00
2012-7-2,67,60,52,-100,-100,-100,0,0,100,0.00,40.00,0,-999,0,0.00
2012-7-3,66,60,52,-100,-100,-100,0,0,100,0.00,40.00,0,-999,0,0.00
2012-7-4,67,58,50,-100,-100,-100,0,0,100,0.00,40.00,0,-999,0,0.00
2012-7-5,60,54,47,-100,-100,-100,0,0,100,0.00,40.00,0,-999,0,0.01
2012-7-6,66,55,44,-100,-100,-100,0,0,100,0.00,40.00,0,-999,0,0.01
2012-7-7,67,57,51,-100,-100,-100,0,0,100,0.00,40.00,0,-999,0,0.01
2012-7-8,68,60,50,-100,-100,-100,0,0,100,0.00,40.00,0,-999,0,0.01
2012-7-9,73,62,53,-100,-100,-100,0,0,100,0.00,40.00,0,-999,0,0.00
2012-7-10,68,61,56,-100,-100,-100,0,0,100,0.00,40.00,0,-999,0,0.00
2012-7-11,68,60,55,-100,-100,-100,0,0,100,0.00,40.00,0,-999,0,0.01
2012-7-12,73,64,54,-100,-100,-100,0,0,100,0.00,40.00,0,-999,0,0.00
2012-7-13,69,62,53,-100,-100,-100,0,0,100,0.00,40.00,0,-999,0,0.01
2012-7-14,61,53,49,-100,-100,-100,0,0,100,0.00,40.00,0,-999,0,0.02
2012-7-15,62,53,47,-100,-100,-100,0,0,100,0.00,40.00,0,-999,0,0.02
2012-7-16,59,54,50,-100,-100,-100,0,0,100,0.00,40.00,0,-999,0,0.00
2012-7-17,62,57,52,-100,-100,-100,0,0,100,0.00,40.00,0,-999,0,0.01
2012-7-18,67,58,53,-100,-100,-100,0,0,100,0.00,40.00,0,-999,0,0.00
2012-7-19,71,60,51,-100,-100,-100,0,0,100,0.00,40.00,0,-999,0,0.00
2012-7-20,69,61,54,-100,-100,-100,0,0,100,0.00,40.00,0,-999,0,0.00
2012-7-21,70,63,55,-100,-100,-100,0,0,100,0.00,40.00,0,-999,0,0.00
2012-7-22,67,58,52,-100,-100,-100,0,0,100,0.00,40.00,0,-999,0,0.01
2012-7-23,66,59,51,-100,-100,-100,0,0,100,0.00,40.00,0,-999,0,0.01
2012-7-24,60,55,50,-100,-100,-100,0,0,100,0.00,40.00,0,-999,0,0.00
2012-7-25,63,55,50,-100,-100,-100,0,0,100,0.00,40.00,0,-999,0,0.00
2012-7-26,69,60,50,-100,-100,-100,0,0,100,0.00,40.00,0,-999,0,0.00
2012-7-27,65,59,52,-100,-100,-100,0,0,100,0.00,40.00,0,-999,0,0.00
2012-7-28,68,61,57,-100,-100,-100,0,0,100,0.00,40.00,0,-999,0,0.00
2012-7-29,69,63,56,-100,-100,-100,0,0,100,0.00,40.00,0,-999,0,0.00
2012-7-30,72,62,57,-100,-100,-100,0,0,100,0.00,40.00,0,-999,0,0.00
2012-7-31,68,62,57,-100,-100,-100,0,0,100,0.00,40.00,0,-999,0,0.00
2012-8-1,67,60,53,-100,-100,-100,0,0,100,0.00,40.00,0,-999,0,0.00
2012-8-2,64,58,50,-100,-100,-100,0,0,100,0.00,40.00,0,-999,0,0.00
2012-8-3,58,53,45,-100,-100,-100,0,0,100,0.00,40.00,0,-999,0,0.00
2012-8-4,64,55,44,-100,-100,-100,0,0,100,0.00,40.00,0,-999,0,0.00
2012-8-5,72,62,54,-100,-100,-100,0,0,100,0.00,40.00,0,-999,0,0.00
2012-8-6,66,60,56,-100,-100,-100,0,0,100,0.00,40.00,0,-999,0,0.00
2012-8-7,70,61,53,-100,-100,-100,0,0,100,0.00,40.00,0,-999,0,0.00
2012-8-8,74,65,57,-100,-100,-100,0,0,100,0.00,40.00,0,-999,0,0.00
2012-8-9,73,67,60,-100,-100,-100,0,0,100,0.00,40.00,0,-999,0,0.00
2012-8-10,68,60,51,-100,-100,-100,0,0,100,0.00,40.00,0,-999,0,0.01
2012-8-11,64,56,49,-100,-100,-100,0,0,100,0.00,40.00,0,-999,0,0.01
2012-8-12,67,60,52,-100,-100,-100,0,0,100,0.00,40.00,0,-999,0,0.00
2012-8-13,69,61,55,-100,-100,-100,0,0,100,0.00,40.00,0,-999,0,0.00
2012-8-14,69,60,53,-100,-100,-100,0,0,100,0.00,40.00,0,-999,0,0.00
2012-8-15,65,58,52,-100,-100,-100,0,0,100,0.00,40.00,0,-999,0,0.00
2012-8-16,65,58,51,-100,-100,-100,0,0,100,0.00,40.00,0,-999,0,0.00
2012-8-17,67,59,51,-100,-100,-100,0,0,100,0.00,40.00,0,-999,0,0.00
2012-8-18,69,59,51,-100,-100,-100,0,0,100,0.00,40.00,0,-999,0,0.00
2012-8-19,64,59,54,-100,-100,-100,0,0,100,0.00,40.00,0,-999,0,0.00
2012-8-20,65,55,48,-100,-100,-100,0,0,100,0.00,40.00,0,-999,0,0.00
2012-8-21,67,57,49,-100,-100,-100,0,0,100,0.00,40.00,0,-999,0,0.00
2012-8-22,65,57,50,-100,-100,-100,0,0,100,0.00,40.00,0,-999,0,0.00
2012-8-23,64,57,50,-100,-100,-100,0,0,100,0.00,40.00,0,-999,0,0.00
2012-8-24,60,56,51,-100,-100,-100,0,0,100,0.00,40.00,0,-999,0,0.00
2012-8-25,62,53,44,-100,-100,-100,0,0,100,0.00,40.00,0,-999,0,0.00
2012-8-26,63,56,50,-100,-100,-100,0,0,100,0.00,40.00,0,-999,0,0.01
2012-8-27,68,57,47,-100,-100,-100,0,0,100,0.00,40.00,0,-999,0,0.01
2012-8-28,70,62,55,-100,-100,-100,0,0,100,0.00,40.00,0,-999,0,0.00
2012-8-29,65,59,53,-100,-100,-100,0,0,100,0.00,40.00,0,-999,0,0.00
2012-8-30,63,57,50,-100,-100,-100,0,0,100,0.00,40.00,0,-999,0,0.00
2012-8-31,59,54,47,-100,-100,-100,0,0,100,0.00,40.00,0,-999,0,0.02
2012-9-1,54,48,42,-100,-100,-100,0,0,100,0.00,40.00,0,-999,0,0.04
2012-9-2,56,48,42,-100,-100,-100,0,0,100,0.00,40.00,0,-999,0,0.02
2012-9-3,58,50,43,-100,-100,-100,0,0,100,0.00,40.00,0,-999,0,0.00
2012-9-4,58,52,46,-100,-100,-100,0,0,100,0.00,40.00,0,-999,0,0.00
2012-9-5,58,50,44,-100,-100,-100,0,0,100,0.00,40.00,0,-999,0,1.63
2012-9-6,53,48,39,-100,-100,-100,0,0,100,0.00,40.00,0,-999,0,0.01
2012-9-7,57,47,40,-100,-100,-100,0,0,100,0.00,40.00,0,-999,0,0.01
2012-9-8,62,52,44,-100,-100,-100,0,0,100,0.00,40.00,0,-999,0,0.00
2012-9-9,64,55,49,-100,-100,-100,0,0,100,0.00,40.00,0,-999,0,0.00
2012-9-10,59,54,50,-100,-100,-100,0,0,100,0.00,40.00,0,-999,0,0.00
2012-9-11,50,46,41,-100,-100,-100,0,0,100,0.00,40.00,0,-999,0,0.00
2012-9-12,50,43,38,-100,-100,-100,0,0,100,0.00,40.00,0,-999,0,0.00
2012-9-13,60,49,38,-100,-100,-100,0,0,100,0.00,40.00,0,-999,0,0.00
2012-9-14,63,55,47,-100,-100,-100,0,0,100,0.00,40.00,0,-999,0,0.00
2012-9-15,61,55,50,-100,-100,-100,0,0,100,0.00,40.00,0,-999,0,0.00
2012-9-16,58,50,44,-100,-100,-100,0,0,100,0.00,40.00,0,-999,0,0.00
2012-9-17,53,45,38,-100,-100,-100,0,0,100,0.00,40.00,0,-999,0,0.00
2012-9-18,56,49,41,-100,-100,-100,0,0,100,0.00,40.00,0,-999,0,0.00
2012-9-19,60,51,43,-100,-100,-100,0,0,100,0.00,40.00,0,-999,0,0.00
2012-9-20,60,51,44,-100,-100,-100,0,0,100,0.00,40.00,0,-999,0,0.00
2012-9-21,64,53,46,-100,-100,-100,0,0,100,0.00,40.00,0,-999,0,0.00
2012-9-22,62,54,49,-100,-100,-100,0,0,100,0.00,40.00,0,-999,0,0.00
2012-9-23,59,53,50,-100,-100,-100,0,0,100,0.00,40.00,0,-999,0,0.00
2012-9-24,50,44,40,-100,-100,-100,0,0,100,0.00,40.00,0,-999,0,0.03
2012-9-25,48,42,38,-100,-100,-100,0,0,100,0.00,40.00,0,-999,0,0.01
2012-9-26,53,44,39,-100,-100,-100,0,0,100,0.00,40.00,0,-999,0,0.03
2012-9-27,55,46,40,-100,-100,-100,0,0,100,0.00,40.00,0,-999,0,0.01
2012-9-28,54,46,42,-100,-100,-100,0,0,100,0.00,40.00,0,-999,0,0.00
2012-9-29,51,47,44,-100,-100,-100,0,0,100,0.00,40.00,0,-999,0,0.00
2012-9-30,54,48,42,-100,-100,-100,0,0,100,0.00,40.00,0,-999,0,0.00
2012-10-1,56,47,40,-100,-100,-100,0,0,100,0.00,40.00,0,-999,0,0.00
2012-10-2,55,48,42,-100,-100,-100,0,0,100,0.00,40.00,0,-999,0,0.00
2012-10-3,44,36,28,-100,-100,-100,0,0,100,0.00,40.00,0,-999,0,0.00
2012-10-4,38,32,27,-100,-100,-100,0,0,100,0.00,40.00,0,-999,0,0.00
2012-10-5,34,28,22,-100,-100,-100,0,0,100,0.00,40.00,0,-999,0,0.00
2012-10-6,36,26,16,-100,-100,-100,0,0,100,0.00,40.00,0,-999,0,0.00
2012-10-7,40,31,24,-100,-100,-100,0,0,100,0.00,40.00,0,-999,0,0.01
2012-10-8,45,36,31,-100,-100,-100,0,0,100,0.00,40.00,0,-999,0,0.00
2012-10-9,45,37,33,-100,-100,-100,0,0,100,0.00,40.00,0,-999,0,0.01
2012-10-10,51,42,34,-100,-100,-100,0,0,100,0.00,40.00,0,-999,0,0.00
2012-10-11,53,46,41,-100,-100,-100,0,0,100,0.00,40.00,0,-999,0,0.00
2012-10-12,56,48,44,-100,-100,-100,0,0,100,0.00,40.00,0,-999,0,0.00
2012-10-13,44,37,34,-100,-100,-100,0,0,100,0.00,40.00,0,-999,0,0.00
2012-10-14,45,38,32,-100,-100,-100,0,0,100,0.00,40.00,0,-999,0,0.00
2012-10-15,43,40,36,-100,-100,-100,0,0,100,0.00,40.00,0,-999,0,0.00
2012-10-16,40,36,24,-100,-100,-100,0,0,100,0.00,40.00,0,-999,0,0.02
2012-10-17,30,24,20,-100,-100,-100,0,0,100,0.00,40.00,0,-999,0,0.01
2012-10-18,40,31,23,-100,-100,-100,0,0,100,0.00,40.00,0,-999,0,0.01
2012-10-19,41,37,33,-100,-100,-100,0,0,100,0.00,40.00,0,-999,0,0.01
2012-10-20,43,38,35,-100,-100,-100,0,0,100,0.00,40.00,0,-999,0,0.01
2012-10-21,36,34,32,-100,-100,-100,0,0,100,0.00,40.00,0,-999,0,0.00
2012-10-22,38,33,31,-100,-100,-100,0,0,100,0.00,40.00,0,-999,0,0.02
2012-10-23,25,21,18,-100,-100,-100,0,0,100,0.00,40.00,0,-999,0,0.02
2012-10-24,26,19,14,-100,-100,-100,0,0,100,0.00,40.00,0,-999,0,0.01
2012-10-25,19,18,17,-100,-100,-100,0,0,100,0.00,40.00,0,-999,0,0.02
2012-10-26,19,17,15,-100,-100,-100,0,0,100,0.00,40.00,0,-999,0,0.01
2012-10-27,25,22,19,-100,-100,-100,0,0,100,0.00,40.00,0,-999,0,0.02
2012-10-28,36,32,26,-100,-100,-100,0,0,100,0.00,40.00,0,-999,0,0.06
2012-10-29,42,38,36,-100,-100,-100,0,0,100,0.00,40.00,0,-999,0,0.01
2012-10-30,42,38,33,-100,-100,-100,0,0,100,0.00,40.00,0,-999,0,0.00
2012-10-31,50,42,35,-100,-100,-100,0,0,100,0.00,40.00,0,-999,0,0.00
2012-11-1,45,37,31,-100,-100,-100,0,0,100,0.00,40.00,0,-999,0,0.01
2012-11-2,36,30,27,-100,-100,-100,0,0,100,0.00,40.00,0,-999,0,0.00
2012-11-3,38,32,27,-100,-100,-100,0,0,100,0.00,40.00,0,-999,0,0.00
2012-11-4,39,34,30,-100,-100,-100,0,0,100,0.00,40.00,0,-999,0,0.01
2012-11-5,42,36,31,-100,-100,-100,0,0,100,0.00,40.00,0,-999,0,0.00
2012-11-6,46,38,33,-100,-100,-100,0,0,100,0.00,40.00,0,-999,0,0.00
2012-11-7,45,40,36,-100,-100,-100,0,0,100,0.00,40.00,0,-999,0,0.65
2012-11-8,41,37,29,-100,-100,-100,0,0,100,0.00,40.00,0,-999,0,0.01
2012-11-9,35,23,15,-100,-100,-100,0,0,100,0.00,40.00,0,-999,0,0.70
2012-11-10,15,10,2,-100,-100,-100,0,0,100,0.00,40.00,0,-999,0,0.21
2012-11-11,9,5,-1,-100,-100,-100,0,0,100,0.00,40.00,0,-999,0,0.76
2012-11-12,24,14,8,-100,-100,-100,0,0,100,0.00,40.00,0,-999,0,0.01
2012-11-13,25,21,17,-100,-100,-100,0,0,100,0.00,40.00,0,-999,0,0.61
2012-11-14,25,23,22,-100,-100,-100,0,0,100,0.00,40.00,0,-999,0,0.02
2012-11-15,31,22,15,-100,-100,-100,0,0,100,0.00,40.00,0,-999,0,0.01
2012-11-16,35,30,26,-100,-100,-100,0,0,100,0.00,40.00,0,-999,0,0.01
2012-11-17,34,31,27,-100,-100,-100,0,0,100,0.00,40.00,0,-999,0,0.01
2012-11-18,32,28,25,-100,-100,-100,0,0,100,0.00,40.00,0,-999,0,0.01
2012-11-19,30,28,26,-100,-100,-100,0,0,100,0.00,40.00,0,-999,0,0.01
2012-11-20,36,34,30,-100,-100,-100,0,0,100,0.00,40.00,0,-999,0,0.00
2012-11-21,36,31,21,-100,-100,-100,0,0,100,0.00,40.00,0,-999,0,0.01
2012-11-22,27,16,10,-100,-100,-100,0,0,100,0.00,40.00,0,-999,0,0.01
2012-11-23,33,24,13,-100,-100,-100,0,0,100,0.00,40.00,0,-999,0,0.01
2012-11-24,33,30,28,-100,-100,-100,0,0,100,0.00,40.00,0,-999,0,0.04
2012-11-25,29,25,17,-100,-100,-100,0,0,100,0.00,40.00,0,-999,0,0.08
2012-11-26,18,13,9,-100,-100,-100,0,0,100,0.00,40.00,0,-999,0,0.02
2012-11-27,30,24,17,-100,-100,-100,0,0,100,0.00,40.00,0,-999,0,0.01
2012-11-28,37,32,28,-100,-100,-100,0,0,100,0.00,40.00,0,-999,0,0.01
2012-11-29,32,29,26,-100,-100,-100,0,0,100,0.00,40.00,0,-999,0,0.01
2012-11-30,33,32,31,-100,-100,-100,0,0,100,0.00,40.00,0,-999,0,0.02
2012-12-1,31,29,28,-100,-100,-100,0,0,100,0.00,40.00,0,-999,0,0.04
2012-12-2,33,30,23,-100,-100,-100,0,0,100,0.00,40.00,0,-999,0,0.02
2012-12-3,23,19,16,-100,-100,-100,0,0,100,0.00,40.00,0,-999,0,0.01
2012-12-4,31,26,17,-100,-100,-100,0,0,100,0.00,40.00,0,-999,0,0.02
2012-12-5,32,30,27,-100,-100,-100,0,0,100,0.00,40.00,0,-999,0,0.02
2012-12-6,26,24,20,-100,-100,-100,0,0,100,0.00,40.00,0,-999,0,0.01
2012-12-7,20,16,15,-100,-100,-100,0,0,100,0.00,40.00,0,-999,0,0.00
2012-12-8,15,9,-6,-100,-100,-100,0,0,100,0.00,40.00,0,-999,0,0.00
2012-12-9,19,2,-7,-100,-100,-100,0,0,100,0.00,40.00,0,-999,0,0.02
2012-12-10,15,13,5,-100,-100,-100,0,0,100,0.00,40.00,0,-999,0,0.02
2012-12-11,22,19,15,-100,-100,-100,0,0,100,0.00,40.00,0,-999,0,0.01
2012-12-12,22,21,18,-100,-100,-100,0,0,100,0.00,40.00,0,-999,0,0.01
2012-12-13,26,23,20,-100,-100,-100,0,0,100,0.00,40.00,0,-999,0,0.01
2012-12-14,31,24,21,-100,-100,-100,0,0,100,0.00,40.00,0,-999,0,0.01
2012-12-15,20,15,10,-100,-100,-100,0,0,100,0.00,40.00,0,-999,0,0.01
2012-12-16,18,13,11,-100,-100,-100,0,0,100,0.00,40.00,0,-999,0,0.02
2012-12-17,24,19,11,-100,-100,-100,0,0,100,0.00,40.00,0,-999,0,0.02
2012-12-18,13,5,-5,-100,-100,-100,0,0,100,0.00,40.00,0,-999,0,0.00
2012-12-19,13,-1,-9,-100,-100,-100,0,0,100,0.00,40.00,0,-999,0,0.00
2012-12-20,27,12,-1,-100,-100,-100,0,0,100,0.00,40.00,0,-999,0,0.01
2012-12-21,29,20,17,-100,-100,-100,0,0,100,0.00,40.00,0,-999,0,0.01
2012-12-22,27,22,18,-100,-100,-100,0,0,100,0.00,40.00,0,-999,0,0.01
2012-12-23,20,16,14,-100,-100,-100,0,0,100,0.00,40.00,0,-999,0,0.01
2012-12-24,21,17,10,-100,-100,-100,0,0,100,0.00,40.00,0,-999,0,0.02
2012-12-25,19,9,2,-100,-100,-100,0,0,100,0.00,40.00,0,-999,0,0.01
2012-12-26,17,12,7,-100,-100,-100,0,0,100,0.00,40.00,0,-999,0,0.01
2012-12-27,16,11,7,-100,-100,-100,0,0,100,0.00,40.00,0,-999,0,0.00
2012-12-28,16,9,2,-100,-100,-100,0,0,100,0.00,40.00,0,-999,0,0.00
2012-12-29,22,10,1,-100,-100,-100,0,0,100,0.00,40.00,0,-999,0,0.00
2012-12-30,15,9,4,-100,-100,-100,0,0,100,0.00,40.00,0,-999,0,0.01
2012-12-31,7,3,-2,-100,-100,-100,0,0,100,0.00,40.00,0,-999,0,0.00
2013-1-1,19,10,3,-100,-100,-100,0,0,100,0.00,40.00,0,-999,0,0.01